sensor_id;sensor_type;location;lat;lon;timestamp;pressure;altitude;pressure_sealevel;temperature;humidity
4586;BME280;2305;50.118;8.952;2022-12-05T00:00:06;100444.25;;;4.40;100.00
4586;BME280;2305;50.118;8.952;2022-12-05T00:02:35;100434.69;;;4.40;100.00
4586;BME280;2305;50.118;8.952;2022-12-05T00:05:04;100438.97;;;4.41;100.00
4586;BME280;2305;50.118;8.952;2022-12-05T00:07:32;100445.00;;;4.42;100.00
4586;BME280;2305;50.118;8.952;2022-12-05T00:10:01;100445.13;;;4.40;100.00
4586;BME280;2305;50.118;8.952;2022-12-05T00:12:29;100447.78;;;4.39;100.00
4586;BME280;2305;50.118;8.952;2022-12-05T00:15:01;100456.56;;;4.38;100.00
4586;BME280;2305;50.118;8.952;2022-12-05T00:17:32;100453.09;;;4.37;100.00
4586;BME280;2305;50.118;8.952;2022-12-05T00:20:00;100454.88;;;4.37;100.00
4586;BME280;2305;50.118;8.952;2022-12-05T00:22:29;100459.16;;;4.38;100.00
4586;BME280;2305;50.118;8.952;2022-12-05T00:24:57;100463.44;;;4.39;100.00
4586;BME280;2305;50.118;8.952;2022-12-05T00:27:27;100463.59;;;4.36;100.00
4586;BME280;2305;50.118;8.952;2022-12-05T00:29:54;100464.44;;;4.36;100.00
4586;BME280;2305;50.118;8.952;2022-12-05T00:32:25;100474.88;;;4.36;100.00
4586;BME280;2305;50.118;8.952;2022-12-05T00:34:55;100471.34;;;4.37;100.00
4586;BME280;2305;50.118;8.952;2022-12-05T00:37:26;100473.19;;;4.35;100.00
4586;BME280;2305;50.118;8.952;2022-12-05T00:39:54;100468.81;;;4.36;100.00
4586;BME280;2305;50.118;8.952;2022-12-05T00:42:24;100480.09;;;4.36;100.00
4586;BME280;2305;50.118;8.952;2022-12-05T00:44:53;100482.53;;;4.39;100.00
4586;BME280;2305;50.118;8.952;2022-12-05T00:47:25;100477.41;;;4.38;100.00
4586;BME280;2305;50.118;8.952;2022-12-05T00:49:53;100484.25;;;4.40;100.00
4586;BME280;2305;50.118;8.952;2022-12-05T00:52:22;100490.34;;;4.39;100.00
4586;BME280;2305;50.118;8.952;2022-12-05T00:54:50;100488.66;;;4.38;100.00
4586;BME280;2305;50.118;8.952;2022-12-05T00:57:19;100491.22;;;4.40;100.00
4586;BME280;2305;50.118;8.952;2022-12-05T00:59:50;100490.34;;;4.39;100.00
4586;BME280;2305;50.118;8.952;2022-12-05T01:02:20;100497.44;;;4.37;100.00
4586;BME280;2305;50.118;8.952;2022-12-05T01:04:50;100502.88;;;4.33;100.00
4586;BME280;2305;50.118;8.952;2022-12-05T01:07:18;100507.19;;;4.34;100.00
4586;BME280;2305;50.118;8.952;2022-12-05T01:09:49;100502.81;;;4.34;100.00
4586;BME280;2305;50.118;8.952;2022-12-05T01:12:18;100509.84;;;4.32;100.00
4586;BME280;2305;50.118;8.952;2022-12-05T01:14:46;100508.19;;;4.31;100.00
4586;BME280;2305;50.118;8.952;2022-12-05T01:17:16;100506.50;;;4.30;100.00
4586;BME280;2305;50.118;8.952;2022-12-05T01:19:47;100515.25;;;4.29;100.00
4586;BME280;2305;50.118;8.952;2022-12-05T01:22:16;100526.53;;;4.30;100.00
4586;BME280;2305;50.118;8.952;2022-12-05T01:24:44;100523.16;;;4.28;100.00
4586;BME280;2305;50.118;8.952;2022-12-05T01:27:15;100526.53;;;4.30;100.00
4586;BME280;2305;50.118;8.952;2022-12-05T01:29:43;100527.28;;;4.32;100.00
4586;BME280;2305;50.118;8.952;2022-12-05T01:32:11;100528.03;;;4.34;100.00
4586;BME280;2305;50.118;8.952;2022-12-05T01:34:39;100522.81;;;4.34;100.00
4586;BME280;2305;50.118;8.952;2022-12-05T01:37:07;100529.72;;;4.35;100.00
4586;BME280;2305;50.118;8.952;2022-12-05T01:39:37;100528.78;;;4.36;100.00
4586;BME280;2305;50.118;8.952;2022-12-05T01:42:10;100522.00;;;4.33;100.00
4586;BME280;2305;50.118;8.952;2022-12-05T01:45:02;100528.03;;;4.34;100.00
4586;BME280;2305;50.118;8.952;2022-12-05T01:47:35;100527.13;;;4.35;100.00
4586;BME280;2305;50.118;8.952;2022-12-05T01:50:05;100524.38;;;4.38;100.00
4586;BME280;2305;50.118;8.952;2022-12-05T01:52:37;100526.97;;;4.38;100.00
4586;BME280;2305;50.118;8.952;2022-12-05T01:55:12;100530.50;;;4.37;100.00
4586;BME280;2305;50.118;8.952;2022-12-05T01:57:42;100535.56;;;4.40;100.00
4586;BME280;2305;50.118;8.952;2022-12-05T02:00:13;100524.38;;;4.38;100.00
4586;BME280;2305;50.118;8.952;2022-12-05T02:02:48;100533.88;;;4.39;100.00
4586;BME280;2305;50.118;8.952;2022-12-05T02:05:23;100539.16;;;4.37;100.00
4586;BME280;2305;50.118;8.952;2022-12-05T02:07:53;100536.56;;;4.37;100.00
4586;BME280;2305;50.118;8.952;2022-12-05T02:10:28;100535.63;;;4.38;100.00
4586;BME280;2305;50.118;8.952;2022-12-05T02:13:10;100534.69;;;4.39;100.00
4586;BME280;2305;50.118;8.952;2022-12-05T02:15:48;100536.41;;;4.40;100.00
4586;BME280;2305;50.118;8.952;2022-12-05T02:18:34;100534.63;;;4.41;100.00
4586;BME280;2305;50.118;8.952;2022-12-05T02:21:26;100539.09;;;4.39;100.00
4586;BME280;2305;50.118;8.952;2022-12-05T02:24:20;100543.56;;;4.37;100.00
4586;BME280;2305;50.118;8.952;2022-12-05T02:30:12;100543.69;;;4.34;100.00
4586;BME280;2305;50.118;8.952;2022-12-05T02:32:49;100542.88;;;4.33;100.00
4586;BME280;2305;50.118;8.952;2022-12-05T02:35:45;100538.41;;;4.35;100.00
4586;BME280;2305;50.118;8.952;2022-12-05T02:38:25;100535.88;;;4.34;100.00
4586;BME280;2305;50.118;8.952;2022-12-05T02:41:04;100538.47;;;4.34;100.00
4586;BME280;2305;50.118;8.952;2022-12-05T02:43:42;100540.16;;;4.35;100.00
4586;BME280;2305;50.118;8.952;2022-12-05T02:46:17;100543.63;;;4.35;100.00
4586;BME280;2305;50.118;8.952;2022-12-05T02:48:53;100541.84;;;4.36;100.00
4586;BME280;2305;50.118;8.952;2022-12-05T02:51:28;100538.47;;;4.34;100.00
4586;BME280;2305;50.118;8.952;2022-12-05T02:54:01;100535.03;;;4.33;100.00
4586;BME280;2305;50.118;8.952;2022-12-05T02:56:32;100541.16;;;4.32;100.00
4586;BME280;2305;50.118;8.952;2022-12-05T02:59:02;100536.97;;;4.30;100.00
4586;BME280;2305;50.118;8.952;2022-12-05T03:01:33;100533.44;;;4.31;100.00
4586;BME280;2305;50.118;8.952;2022-12-05T03:04:05;100534.44;;;4.28;100.00
4586;BME280;2305;50.118;8.952;2022-12-05T03:06:40;100536.03;;;4.31;100.00
4586;BME280;2305;50.118;8.952;2022-12-05T03:09:12;100540.34;;;4.32;100.00
4586;BME280;2305;50.118;8.952;2022-12-05T03:11:46;100536.78;;;4.33;100.00
4586;BME280;2305;50.118;8.952;2022-12-05T03:14:20;100542.00;;;4.33;100.00
4586;BME280;2305;50.118;8.952;2022-12-05T03:16:58;100539.41;;;4.33;100.00
4586;BME280;2305;50.118;8.952;2022-12-05T03:19:31;100541.34;;;4.29;100.00
4586;BME280;2305;50.118;8.952;2022-12-05T03:22:07;100548.16;;;4.32;100.00
4586;BME280;2305;50.118;8.952;2022-12-05T03:24:39;100550.75;;;4.32;100.00
4586;BME280;2305;50.118;8.952;2022-12-05T03:27:14;100550.53;;;4.36;100.00
4586;BME280;2305;50.118;8.952;2022-12-05T03:29:49;100549.75;;;4.34;100.00
4586;BME280;2305;50.118;8.952;2022-12-05T03:32:27;100547.22;;;4.33;100.00
4586;BME280;2305;50.118;8.952;2022-12-05T03:35:04;100548.22;;;4.30;100.00
4586;BME280;2305;50.118;8.952;2022-12-05T03:37:40;100555.28;;;4.28;100.00
4586;BME280;2305;50.118;8.952;2022-12-05T03:40:18;100559.59;;;4.29;100.00
4586;BME280;2305;50.118;8.952;2022-12-05T03:42:54;100562.19;;;4.29;100.00
4586;BME280;2305;50.118;8.952;2022-12-05T03:45:31;100565.56;;;4.31;100.00
4586;BME280;2305;50.118;8.952;2022-12-05T03:48:12;100576.78;;;4.33;100.00
4586;BME280;2305;50.118;8.952;2022-12-05T03:50:43;100574.16;;;4.33;100.00
4586;BME280;2305;50.118;8.952;2022-12-05T03:53:18;100587.03;;;4.36;100.00
4586;BME280;2305;50.118;8.952;2022-12-05T03:55:57;100588.03;;;4.34;100.00
4586;BME280;2305;50.118;8.952;2022-12-05T03:58:29;100589.81;;;4.33;100.00
4586;BME280;2305;50.118;8.952;2022-12-05T04:01:04;100595.78;;;4.35;100.00
4586;BME280;2305;50.118;8.952;2022-12-05T04:03:39;100594.00;;;4.36;100.00
4586;BME280;2305;50.118;8.952;2022-12-05T04:06:14;100595.59;;;4.38;100.00
4586;BME280;2305;50.118;8.952;2022-12-05T04:08:49;100593.84;;;4.39;100.00
4586;BME280;2305;50.118;8.952;2022-12-05T04:11:23;100587.72;;;4.40;100.00
4586;BME280;2305;50.118;8.952;2022-12-05T04:13:54;100577.47;;;4.37;100.00
4586;BME280;2305;50.118;8.952;2022-12-05T04:16:31;100583.44;;;4.39;100.00
4586;BME280;2305;50.118;8.952;2022-12-05T04:19:25;100595.53;;;4.40;100.00
4586;BME280;2305;50.118;8.952;2022-12-05T04:22:18;100592.00;;;4.41;100.00
4586;BME280;2305;50.118;8.952;2022-12-05T04:24:47;100594.69;;;4.39;100.00
4586;BME280;2305;50.118;8.952;2022-12-05T04:27:38;100604.84;;;4.28;100.00
4586;BME280;2305;50.118;8.952;2022-12-05T04:30:13;100604.59;;;4.33;100.00
4586;BME280;2305;50.118;8.952;2022-12-05T04:32:45;100606.59;;;4.28;100.00
4586;BME280;2305;50.118;8.952;2022-12-05T04:35:21;100595.09;;;4.32;100.00
4586;BME280;2305;50.118;8.952;2022-12-05T04:37:57;100609.81;;;4.33;100.00
4586;BME280;2305;50.118;8.952;2022-12-05T04:40:30;100602.25;;;4.28;100.00
4586;BME280;2305;50.118;8.952;2022-12-05T04:43:03;100610.84;;;4.14;100.00
4586;BME280;2305;50.118;8.952;2022-12-05T04:45:37;100613.28;;;4.17;100.00
4586;BME280;2305;50.118;8.952;2022-12-05T04:48:10;100611.66;;;4.14;100.00
4586;BME280;2305;50.118;8.952;2022-12-05T04:50:41;100611.22;;;4.06;100.00
4586;BME280;2305;50.118;8.952;2022-12-05T04:53:13;100610.53;;;4.03;100.00
4586;BME280;2305;50.118;8.952;2022-12-05T04:55:46;100614.53;;;4.10;100.00
4586;BME280;2305;50.118;8.952;2022-12-05T04:58:18;100618.75;;;4.12;100.00
4586;BME280;2305;50.118;8.952;2022-12-05T05:00:55;100624.94;;;4.10;100.00
4586;BME280;2305;50.118;8.952;2022-12-05T05:03:29;100623.78;;;4.15;100.00
4586;BME280;2305;50.118;8.952;2022-12-05T05:05:59;100626.09;;;4.21;100.00
4586;BME280;2305;50.118;8.952;2022-12-05T05:08:28;100628.63;;;4.22;100.00
4586;BME280;2305;50.118;8.952;2022-12-05T05:11:03;100624.47;;;4.18;100.00
4586;BME280;2305;50.118;8.952;2022-12-05T05:13:33;100631.72;;;4.14;100.00
4586;BME280;2305;50.118;8.952;2022-12-05T05:16:01;100626.94;;;4.05;100.00
4586;BME280;2305;50.118;8.952;2022-12-05T05:18:30;100632.53;;;3.97;100.00
4586;BME280;2305;50.118;8.952;2022-12-05T05:20:59;100639.44;;;3.98;100.00
4586;BME280;2305;50.118;8.952;2022-12-05T05:23:27;100632.25;;;4.03;100.00
4586;BME280;2305;50.118;8.952;2022-12-05T05:25:56;100631.16;;;4.07;100.00
4586;BME280;2305;50.118;8.952;2022-12-05T05:28:24;100640.53;;;4.11;100.00
4586;BME280;2305;50.118;8.952;2022-12-05T05:30:52;100645.66;;;4.13;100.00
4586;BME280;2305;50.118;8.952;2022-12-05T05:33:21;100649.50;;;4.06;100.00
4586;BME280;2305;50.118;8.952;2022-12-05T05:35:50;100640.34;;;4.14;100.00
4586;BME280;2305;50.118;8.952;2022-12-05T05:38:20;100648.66;;;4.05;100.00
4586;BME280;2305;50.118;8.952;2022-12-05T05:40:48;100653.69;;;4.08;100.00
4586;BME280;2305;50.118;8.952;2022-12-05T05:43:17;100649.03;;;4.15;100.00
4586;BME280;2305;50.118;8.952;2022-12-05T05:45:45;100650.94;;;4.11;100.00
4586;BME280;2305;50.118;8.952;2022-12-05T05:48:21;100640.34;;;4.14;100.00
4586;BME280;2305;50.118;8.952;2022-12-05T05:50:50;100650.47;;;4.20;100.00
4586;BME280;2305;50.118;8.952;2022-12-05T05:53:22;100647.94;;;4.18;100.00
4586;BME280;2305;50.118;8.952;2022-12-05T05:55:51;100639.44;;;4.15;100.00
4586;BME280;2305;50.118;8.952;2022-12-05T05:58:19;100632.28;;;4.18;100.00
4586;BME280;2305;50.118;8.952;2022-12-05T06:00:47;100641.72;;;4.21;100.00
4586;BME280;2305;50.118;8.952;2022-12-05T06:03:18;100644.09;;;4.25;100.00
4586;BME280;2305;50.118;8.952;2022-12-05T06:05:55;100644.09;;;4.25;100.00
4586;BME280;2305;50.118;8.952;2022-12-05T06:08:25;100650.09;;;4.28;100.00
4586;BME280;2305;50.118;8.952;2022-12-05T06:10:56;100644.78;;;4.29;100.00
4586;BME280;2305;50.118;8.952;2022-12-05T06:13:25;100640.25;;;4.32;100.00
4586;BME280;2305;50.118;8.952;2022-12-05T06:15:53;100641.13;;;4.33;100.00
4586;BME280;2305;50.118;8.952;2022-12-05T06:18:22;100644.47;;;4.35;100.00
4586;BME280;2305;50.118;8.952;2022-12-05T06:20:51;100636.75;;;4.33;100.00
4586;BME280;2305;50.118;8.952;2022-12-05T06:23:20;100635.84;;;4.34;100.00
4586;BME280;2305;50.118;8.952;2022-12-05T06:25:54;100631.44;;;4.35;100.00
4586;BME280;2305;50.118;8.952;2022-12-05T06:28:53;100640.06;;;4.37;100.00
4586;BME280;2305;50.118;8.952;2022-12-05T06:31:51;100647.72;;;4.40;100.00
4586;BME280;2305;50.118;8.952;2022-12-05T06:34:19;100662.38;;;4.42;100.00
4586;BME280;2305;50.118;8.952;2022-12-05T06:36:47;100661.44;;;4.43;100.00
4586;BME280;2305;50.118;8.952;2022-12-05T06:39:16;100657.16;;;4.42;100.00
4586;BME280;2305;50.118;8.952;2022-12-05T06:41:48;100664.97;;;4.42;100.00
4586;BME280;2305;50.118;8.952;2022-12-05T06:44:17;100671.94;;;4.42;100.00
4586;BME280;2305;50.118;8.952;2022-12-05T06:46:47;100674.97;;;4.34;100.00
4586;BME280;2305;50.118;8.952;2022-12-05T06:49:15;100674.97;;;4.34;100.00
4586;BME280;2305;50.118;8.952;2022-12-05T06:51:44;100690.38;;;4.39;100.00
4586;BME280;2305;50.118;8.952;2022-12-05T06:54:14;100684.06;;;4.43;100.00
4586;BME280;2305;50.118;8.952;2022-12-05T06:56:45;100684.06;;;4.43;100.00
4586;BME280;2305;50.118;8.952;2022-12-05T06:59:19;100686.53;;;4.46;100.00
4586;BME280;2305;50.118;8.952;2022-12-05T07:01:50;100688.28;;;4.45;100.00
4586;BME280;2305;50.118;8.952;2022-12-05T07:04:19;100698.66;;;4.47;100.00
4586;BME280;2305;50.118;8.952;2022-12-05T07:06:51;100703.34;;;4.40;100.00
4586;BME280;2305;50.118;8.952;2022-12-05T07:09:23;100708.31;;;4.45;100.00
4586;BME280;2305;50.118;8.952;2022-12-05T07:12:13;100716.06;;;4.46;100.00
4586;BME280;2305;50.118;8.952;2022-12-05T07:14:44;100709.84;;;4.49;100.00
4586;BME280;2305;50.118;8.952;2022-12-05T07:17:15;100714.47;;;4.44;100.00
4586;BME280;2305;50.118;8.952;2022-12-05T07:19:46;100715.22;;;4.46;100.00
4586;BME280;2305;50.118;8.952;2022-12-05T07:22:15;100714.94;;;4.52;100.00
4586;BME280;2305;50.118;8.952;2022-12-05T07:24:43;100717.38;;;4.55;100.00
4586;BME280;2305;50.118;8.952;2022-12-05T07:27:13;100711.97;;;4.58;100.00
4586;BME280;2305;50.118;8.952;2022-12-05T07:29:47;100717.13;;;4.59;100.00
4586;BME280;2305;50.118;8.952;2022-12-05T07:32:16;100725.88;;;4.58;100.00
4586;BME280;2305;50.118;8.952;2022-12-05T07:34:45;100721.28;;;4.63;100.00
4586;BME280;2305;50.118;8.952;2022-12-05T07:37:21;100723.72;;;4.66;100.00
4586;BME280;2305;50.118;8.952;2022-12-05T07:39:50;100723.66;;;4.68;100.00
4586;BME280;2305;50.118;8.952;2022-12-05T07:42:18;100728.81;;;4.69;100.00
4586;BME280;2305;50.118;8.952;2022-12-05T07:44:48;100731.41;;;4.69;100.00
4586;BME280;2305;50.118;8.952;2022-12-05T07:47:18;100728.88;;;4.68;100.00
4586;BME280;2305;50.118;8.952;2022-12-05T07:49:49;100730.47;;;4.70;100.00
4586;BME280;2305;50.118;8.952;2022-12-05T07:52:18;100733.16;;;4.69;100.00
4586;BME280;2305;50.118;8.952;2022-12-05T07:54:46;100742.69;;;4.70;100.00
4586;BME280;2305;50.118;8.952;2022-12-05T07:57:15;100744.47;;;4.69;100.00
4586;BME280;2305;50.118;8.952;2022-12-05T07:59:43;100754.97;;;4.68;100.00
4586;BME280;2305;50.118;8.952;2022-12-05T08:02:13;100753.97;;;4.70;100.00
4586;BME280;2305;50.118;8.952;2022-12-05T08:04:44;100754.03;;;4.69;100.00
4586;BME280;2305;50.118;8.952;2022-12-05T08:07:12;100753.34;;;4.65;100.00
4586;BME280;2305;50.118;8.952;2022-12-05T08:09:40;100759.19;;;4.70;100.00
4586;BME280;2305;50.118;8.952;2022-12-05T08:12:08;100745.22;;;4.71;100.00
4586;BME280;2305;50.118;8.952;2022-12-05T08:14:37;100752.28;;;4.69;100.00
4586;BME280;2305;50.118;8.952;2022-12-05T08:17:04;100745.84;;;4.76;100.00
4586;BME280;2305;50.118;8.952;2022-12-05T08:19:37;100757.09;;;4.77;100.00
4586;BME280;2305;50.118;8.952;2022-12-05T08:22:05;100753.50;;;4.79;100.00
4586;BME280;2305;50.118;8.952;2022-12-05T08:24:33;100768.22;;;4.80;100.00
4586;BME280;2305;50.118;8.952;2022-12-05T08:27:03;100766.63;;;4.78;100.00
4586;BME280;2305;50.118;8.952;2022-12-05T08:29:32;100767.53;;;4.77;100.00
4586;BME280;2305;50.118;8.952;2022-12-05T08:32:01;100775.31;;;4.78;100.00
4586;BME280;2305;50.118;8.952;2022-12-05T08:34:29;100781.22;;;4.82;100.00
4586;BME280;2305;50.118;8.952;2022-12-05T08:36:59;100784.19;;;4.74;100.00
4586;BME280;2305;50.118;8.952;2022-12-05T08:39:30;100782.81;;;4.67;100.00
4586;BME280;2305;50.118;8.952;2022-12-05T08:42:04;100782.50;;;4.73;100.00
4586;BME280;2305;50.118;8.952;2022-12-05T08:44:34;100793.34;;;4.83;100.00
4586;BME280;2305;50.118;8.952;2022-12-05T08:47:02;100800.88;;;4.89;100.00
4586;BME280;2305;50.118;8.952;2022-12-05T08:49:30;100798.19;;;4.90;100.00
4586;BME280;2305;50.118;8.952;2022-12-05T08:52:03;100810.31;;;4.91;100.00
4586;BME280;2305;50.118;8.952;2022-12-05T08:54:34;100809.38;;;4.92;100.00
4586;BME280;2305;50.118;8.952;2022-12-05T08:57:03;100806.59;;;4.95;100.00
4586;BME280;2305;50.118;8.952;2022-12-05T08:59:32;100809.16;;;4.97;100.00
4586;BME280;2305;50.118;8.952;2022-12-05T09:02:03;100800.78;;;4.90;100.00
4586;BME280;2305;50.118;8.952;2022-12-05T09:04:33;100808.69;;;4.89;100.00
4586;BME280;2305;50.118;8.952;2022-12-05T09:07:06;100809.38;;;4.92;100.00
4586;BME280;2305;50.118;8.952;2022-12-05T09:09:36;100816.59;;;4.87;100.00
4586;BME280;2305;50.118;8.952;2022-12-05T09:12:05;100818.69;;;4.81;100.00
4586;BME280;2305;50.118;8.952;2022-12-05T09:14:33;100817.53;;;4.86;100.00
4586;BME280;2305;50.118;8.952;2022-12-05T09:17:02;100819.97;;;4.89;100.00
4586;BME280;2305;50.118;8.952;2022-12-05T09:19:30;100817.91;;;4.96;100.00
4586;BME280;2305;50.118;8.952;2022-12-05T09:21:59;100825.66;;;4.97;100.00
4586;BME280;2305;50.118;8.952;2022-12-05T09:24:31;100825.06;;;4.92;100.00
4586;BME280;2305;50.118;8.952;2022-12-05T09:27:01;100828.34;;;4.96;100.00
4586;BME280;2305;50.118;8.952;2022-12-05T09:29:29;100832.56;;;4.98;100.00
4586;BME280;2305;50.118;8.952;2022-12-05T09:31:58;100829.41;;;4.92;100.00
4586;BME280;2305;50.118;8.952;2022-12-05T09:34:26;100833.50;;;4.97;100.00
4586;BME280;2305;50.118;8.952;2022-12-05T09:36:55;100844.53;;;5.02;100.00
4586;BME280;2305;50.118;8.952;2022-12-05T09:39:50;100830.34;;;4.91;100.00
4586;BME280;2305;50.118;8.952;2022-12-05T09:42:35;100832.31;;;4.86;100.00
4586;BME280;2305;50.118;8.952;2022-12-05T09:45:17;100838.03;;;4.94;100.00
4586;BME280;2305;50.118;8.952;2022-12-05T09:47:56;100844.78;;;4.98;100.00
4586;BME280;2305;50.118;8.952;2022-12-05T09:50:29;100841.41;;;4.96;100.00
4586;BME280;2305;50.118;8.952;2022-12-05T09:53:19;100837.34;;;4.90;100.00
4586;BME280;2305;50.118;8.952;2022-12-05T09:55:58;100835.44;;;4.94;100.00
4586;BME280;2305;50.118;8.952;2022-12-05T09:58:37;100833.63;;;4.94;100.00
4586;BME280;2305;50.118;8.952;2022-12-05T10:01:21;100838.56;;;5.00;100.00
4586;BME280;2305;50.118;8.952;2022-12-05T10:04:04;100828.03;;;5.02;100.00
4586;BME280;2305;50.118;8.952;2022-12-05T10:06:37;100829.78;;;5.01;100.00
4586;BME280;2305;50.118;8.952;2022-12-05T10:09:18;100828.72;;;5.05;100.00
4586;BME280;2305;50.118;8.952;2022-12-05T10:11:58;100822.16;;;5.14;100.00
4586;BME280;2305;50.118;8.952;2022-12-05T10:14:34;100820.66;;;5.10;100.00
4586;BME280;2305;50.118;8.952;2022-12-05T10:17:14;100822.41;;;5.09;100.00
4586;BME280;2305;50.118;8.952;2022-12-05T10:19:46;100810.91;;;5.13;100.00
4586;BME280;2305;50.118;8.952;2022-12-05T10:22:22;100812.28;;;5.20;100.00
4586;BME280;2305;50.118;8.952;2022-12-05T10:24:55;100816.19;;;5.12;100.00
4586;BME280;2305;50.118;8.952;2022-12-05T10:27:33;100810.72;;;5.16;100.00
4586;BME280;2305;50.118;8.952;2022-12-05T10:30:12;100803.25;;;5.26;100.00
4586;BME280;2305;50.118;8.952;2022-12-05T10:32:49;100802.88;;;5.33;100.00
4586;BME280;2305;50.118;8.952;2022-12-05T10:35:21;100812.22;;;5.37;100.00
4586;BME280;2305;50.118;8.952;2022-12-05T10:37:53;100807.53;;;5.44;100.00
4586;BME280;2305;50.118;8.952;2022-12-05T10:40:23;100814.97;;;5.51;100.00
4586;BME280;2305;50.118;8.952;2022-12-05T10:42:55;100805.03;;;5.58;100.00
4586;BME280;2305;50.118;8.952;2022-12-05T10:45:23;100799.56;;;5.62;100.00
4586;BME280;2305;50.118;8.952;2022-12-05T10:47:54;100803.84;;;5.63;100.00
4586;BME280;2305;50.118;8.952;2022-12-05T10:50:28;100794.91;;;5.67;100.00
4586;BME280;2305;50.118;8.952;2022-12-05T10:53:00;100793.91;;;5.70;100.00
4586;BME280;2305;50.118;8.952;2022-12-05T10:55:33;100790.97;;;5.76;100.00
4586;BME280;2305;50.118;8.952;2022-12-05T10:58:15;100787.28;;;5.80;100.00
4586;BME280;2305;50.118;8.952;2022-12-05T11:00:52;100788.97;;;5.81;100.00
4586;BME280;2305;50.118;8.952;2022-12-05T11:03:26;100787.97;;;5.83;100.00
4586;BME280;2305;50.118;8.952;2022-12-05T11:05:56;100781.22;;;5.79;100.00
4586;BME280;2305;50.118;8.952;2022-12-05T11:08:27;100781.81;;;5.84;100.00
4586;BME280;2305;50.118;8.952;2022-12-05T11:11:21;100785.19;;;5.86;100.00
4586;BME280;2305;50.118;8.952;2022-12-05T11:13:55;100779.63;;;5.92;100.00
4586;BME280;2305;50.118;8.952;2022-12-05T11:16:26;100787.88;;;6.00;100.00
4586;BME280;2305;50.118;8.952;2022-12-05T11:19:22;100787.38;;;5.94;100.00
4586;BME280;2305;50.118;8.952;2022-12-05T11:21:52;100791.50;;;5.98;100.00
4586;BME280;2305;50.118;8.952;2022-12-05T11:24:21;100790.75;;;5.96;100.00
4586;BME280;2305;50.118;8.952;2022-12-05T11:26:52;100795.97;;;5.80;100.00
4586;BME280;2305;50.118;8.952;2022-12-05T11:29:31;100792.97;;;5.71;100.00
4586;BME280;2305;50.118;8.952;2022-12-05T11:32:05;100793.81;;;5.71;100.00
4586;BME280;2305;50.118;8.952;2022-12-05T11:34:47;100789.69;;;5.67;100.00
4586;BME280;2305;50.118;8.952;2022-12-05T11:37:23;100803.19;;;5.60;100.00
4586;BME280;2305;50.118;8.952;2022-12-05T11:39:53;100797.94;;;5.60;100.00
4586;BME280;2305;50.118;8.952;2022-12-05T11:42:33;100800.50;;;5.61;100.00
4586;BME280;2305;50.118;8.952;2022-12-05T11:45:34;100810.25;;;5.58;100.00
4586;BME280;2305;50.118;8.952;2022-12-05T11:48:33;100801.16;;;5.65;100.00
4586;BME280;2305;50.118;8.952;2022-12-05T11:51:22;100806.53;;;5.62;100.00
4586;BME280;2305;50.118;8.952;2022-12-05T11:54:14;100808.03;;;5.50;100.00
4586;BME280;2305;50.118;8.952;2022-12-05T11:57:17;100804.44;;;5.53;100.00
4586;BME280;2305;50.118;8.952;2022-12-05T12:00:13;100803.84;;;5.63;100.00
4586;BME280;2305;50.118;8.952;2022-12-05T12:03:01;100797.19;;;5.73;100.00
4586;BME280;2305;50.118;8.952;2022-12-05T12:05:37;100799.06;;;5.71;100.00
4586;BME280;2305;50.118;8.952;2022-12-05T12:08:17;100794.00;;;5.68;100.00
4586;BME280;2305;50.118;8.952;2022-12-05T12:10:56;100792.81;;;5.74;100.00
4586;BME280;2305;50.118;8.952;2022-12-05T12:13:51;100800.59;;;5.75;100.00
4586;BME280;2305;50.118;8.952;2022-12-05T12:16:33;100791.81;;;5.76;100.00
4586;BME280;2305;50.118;8.952;2022-12-05T12:19:17;100793.66;;;5.74;100.00
4586;BME280;2305;50.118;8.952;2022-12-05T12:22:01;100797.75;;;5.80;100.00
4586;BME280;2305;50.118;8.952;2022-12-05T12:24:50;100798.88;;;5.59;100.00
4586;BME280;2305;50.118;8.952;2022-12-05T12:27:30;100806.97;;;5.54;100.00
4586;BME280;2305;50.118;8.952;2022-12-05T12:30:06;100803.75;;;5.49;100.00
4586;BME280;2305;50.118;8.952;2022-12-05T12:32:44;100802.13;;;5.47;100.00
4586;BME280;2305;50.118;8.952;2022-12-05T12:35:28;100801.63;;;5.56;100.00
4586;BME280;2305;50.118;8.952;2022-12-05T12:38:13;100798.19;;;5.55;100.00
4586;BME280;2305;50.118;8.952;2022-12-05T12:40:48;100800.13;;;5.52;100.00
4586;BME280;2305;50.118;8.952;2022-12-05T12:43:34;100803.81;;;5.48;100.00
4586;BME280;2305;50.118;8.952;2022-12-05T12:46:32;100810.16;;;5.44;100.00
4586;BME280;2305;50.118;8.952;2022-12-05T12:49:29;100808.28;;;5.46;100.00
4586;BME280;2305;50.118;8.952;2022-12-05T12:52:10;100804.50;;;5.51;100.00
4586;BME280;2305;50.118;8.952;2022-12-05T12:54:57;100798.44;;;5.51;100.00
4586;BME280;2305;50.118;8.952;2022-12-05T12:57:58;100798.34;;;5.52;100.00
4586;BME280;2305;50.118;8.952;2022-12-05T13:00:41;100803.19;;;5.60;100.00
4586;BME280;2305;50.118;8.952;2022-12-05T13:03:18;100809.91;;;5.64;100.00
4586;BME280;2305;50.118;8.952;2022-12-05T13:05:50;100802.56;;;5.55;100.00
4586;BME280;2305;50.118;8.952;2022-12-05T13:08:32;100806.78;;;5.57;100.00
4586;BME280;2305;50.118;8.952;2022-12-05T13:11:06;100802.56;;;5.55;100.00
4586;BME280;2305;50.118;8.952;2022-12-05T13:13:41;100811.94;;;5.59;100.00
4586;BME280;2305;50.118;8.952;2022-12-05T13:16:18;100806.41;;;5.65;100.00
4586;BME280;2305;50.118;8.952;2022-12-05T13:18:49;100804.69;;;5.64;100.00
4586;BME280;2305;50.118;8.952;2022-12-05T13:21:18;100812.78;;;5.59;100.00
4586;BME280;2305;50.118;8.952;2022-12-05T13:23:50;100806.47;;;5.63;100.00
4586;BME280;2305;50.118;8.952;2022-12-05T13:26:21;100801.16;;;5.65;100.00
4586;BME280;2305;50.118;8.952;2022-12-05T13:28:52;100802.44;;;5.58;100.00
4586;BME280;2305;50.118;8.952;2022-12-05T13:31:34;100798.63;;;5.63;100.00
4586;BME280;2305;50.118;8.952;2022-12-05T13:34:02;100794.22;;;5.64;100.00
4586;BME280;2305;50.118;8.952;2022-12-05T13:36:39;100795.69;;;5.69;100.00
4586;BME280;2305;50.118;8.952;2022-12-05T13:39:28;100800.47;;;5.77;100.00
4586;BME280;2305;50.118;8.952;2022-12-05T13:42:21;100797.88;;;5.77;100.00
4586;BME280;2305;50.118;8.952;2022-12-05T13:44:54;100805.72;;;5.77;100.00
4586;BME280;2305;50.118;8.952;2022-12-05T13:47:28;100804.34;;;5.70;100.00
4586;BME280;2305;50.118;8.952;2022-12-05T13:50:08;100809.19;;;5.77;100.00